»·PEaware :: UAL837 KSFO-KPDX

UAL837 :: KSFO-KPDX

FLIGHT INFORMATION

Flight Status: Arrived
Operator:
United Airlines
More flights by this operator :: More flights under this callsign
Pilot: Pratham R. (19019)
Aircraft: AIRBUS A319
(A319)
More flights by this aircraft type
Origin: KSFO San Francisco Intl
United States
Destination: KPDX Portland Intl
United States
More flights between these airports :: More routes between these airports
Route: TRUKN2 GRTFL MACHU TMBRS2
File this flight plan on PilotEdge
Remarks: RMK / SIMBRIEF
Altitude:
(Current/Filed)
38,000ft
Speed:
(Current/Filed)
447kts
Departed: 24-Nov-20 01:36 PM
Arrived: 24-Nov-20 03:01 PM
Distance/Time
Traveled:
478nm/1:25
Distance/Time
To Go:
Arrived

Flight Plot

Page will automatically refresh every two minutes.


Map Options




Map Legend


Flown Route
Filed Route
Departure Airport
Arrival Airport
Navaid (VOR, NDB)
Fix

Horizontal Profiles

Position Reports

Time Latitude Longitude Heading Altitude Ground
Speed
24-Nov-20 13:06 37.617855 -122.380649 257 18ft 0kts
24-Nov-20 13:07 37.617855 -122.380649 257 18ft 0kts
24-Nov-20 13:08 37.617855 -122.380649 257 18ft 0kts
24-Nov-20 13:09 37.617855 -122.380649 257 18ft 0kts
24-Nov-20 13:10 37.617855 -122.380649 257 18ft 0kts
24-Nov-20 13:11 37.617855 -122.380649 257 18ft 0kts
24-Nov-20 13:12 37.617855 -122.380649 257 18ft 0kts
24-Nov-20 13:13 37.617855 -122.380649 257 18ft 0kts
24-Nov-20 13:14 37.617855 -122.380649 257 18ft 0kts
24-Nov-20 13:15 37.617855 -122.380649 257 18ft 0kts
24-Nov-20 13:16 37.617855 -122.380649 257 18ft 0kts
24-Nov-20 13:17 37.617855 -122.380649 257 18ft 0kts
24-Nov-20 13:18 37.617855 -122.380649 257 18ft 0kts
24-Nov-20 13:19 37.617855 -122.380649 257 18ft 0kts
24-Nov-20 13:20 37.617855 -122.380649 257 18ft 0kts
24-Nov-20 13:21 37.617855 -122.380649 257 18ft 0kts
24-Nov-20 13:22 37.617855 -122.380649 257 18ft 0kts
24-Nov-20 13:23 37.617855 -122.380649 257 18ft 0kts
24-Nov-20 13:24 37.617976 -122.379973 257 18ft 1kts
24-Nov-20 13:25 37.618334 -122.379730 146 18ft 1kts
24-Nov-20 13:26 37.618375 -122.379764 151 18ft 0kts
24-Nov-20 13:27 37.618375 -122.379764 151 18ft 0kts
24-Nov-20 13:28 37.618375 -122.379764 151 18ft 0kts
24-Nov-20 13:29 37.618323 -122.379725 152 18ft 0kts
24-Nov-20 13:30 37.617568 -122.379447 174 18ft 11kts
24-Nov-20 13:31 37.613160 -122.381933 207 16ft 20kts
24-Nov-20 13:32 37.609903 -122.384180 215 18ft 7kts
24-Nov-20 13:33 37.608487 -122.383809 139 17ft 0kts
24-Nov-20 13:34 37.608543 -122.382485 29 18ft 9kts
24-Nov-20 13:35 37.633402 -122.366357 35 886ft 145kts
24-Nov-20 13:36 37.659217 -122.322228 56 2824ft 190kts
24-Nov-20 13:37 37.696254 -122.256146 59 5102ft 264kts
24-Nov-20 13:38 37.756935 -122.215469 359 8810ft 279kts
24-Nov-20 13:39 37.835869 -122.218098 359 11443ft 311kts
24-Nov-20 13:40 37.932268 -122.220615 359 12751ft 380kts
24-Nov-20 13:41 38.039685 -122.223441 359 15574ft 392kts
24-Nov-20 13:42 38.149268 -122.226347 358 18036ft 403kts
24-Nov-20 13:43 38.262087 -122.229369 358 19035ft 406kts
24-Nov-20 13:44 38.376272 -122.234267 355 20494ft 414kts
24-Nov-20 13:45 38.492903 -122.246443 354 22381ft 425kts
24-Nov-20 13:46 38.612013 -122.258928 354 24065ft 435kts
24-Nov-20 13:47 38.732807 -122.271562 353 26002ft 432kts
24-Nov-20 13:48 38.845315 -122.283340 352 27805ft 427kts
24-Nov-20 13:49 38.942554 -122.293542 352 29264ft 423kts
24-Nov-20 13:50 39.059032 -122.305846 350 30877ft 418kts
24-Nov-20 13:51 39.158101 -122.316363 349 32072ft 416kts
24-Nov-20 13:52 39.273525 -122.328556 349 33348ft 415kts
24-Nov-20 13:53 39.388837 -122.340695 347 34167ft 422kts
24-Nov-20 13:54 39.507626 -122.353533 347 34941ft 428kts
24-Nov-20 13:55 39.626817 -122.366292 347 35958ft 426kts
24-Nov-20 13:56 39.744905 -122.379033 347 36769ft 425kts
24-Nov-20 13:57 39.862322 -122.391750 347 37434ft 425kts
24-Nov-20 13:58 39.979937 -122.404490 347 38013ft 425kts
24-Nov-20 13:59 40.097394 -122.417268 347 38148ft 425kts
24-Nov-20 14:00 40.211510 -122.429590 347 38148ft 425kts
24-Nov-20 14:01 40.328129 -122.442305 347 38138ft 425kts
24-Nov-20 14:02 40.445320 -122.455175 347 38131ft 425kts
24-Nov-20 14:03 40.563027 -122.468172 347 38130ft 425kts
24-Nov-20 14:04 40.681023 -122.481235 347 38130ft 425kts
24-Nov-20 14:05 40.799164 -122.494351 347 38130ft 425kts
24-Nov-20 14:06 40.916751 -122.507444 347 38130ft 425kts
24-Nov-20 14:07 41.034676 -122.520575 347 38134ft 427kts
24-Nov-20 14:08 41.147964 -122.533232 346 38163ft 431kts
24-Nov-20 14:09 41.266478 -122.546519 346 38204ft 431kts
24-Nov-20 14:10 41.385867 -122.559984 346 38232ft 430kts
24-Nov-20 14:11 41.504934 -122.573468 346 38238ft 431kts
24-Nov-20 14:12 41.624904 -122.582333 348 38239ft 433kts
24-Nov-20 14:13 41.745498 -122.590102 348 38239ft 433kts
24-Nov-20 14:14 41.865326 -122.597946 348 38238ft 433kts
24-Nov-20 14:15 41.985721 -122.605854 348 38239ft 434kts
24-Nov-20 14:16 42.101998 -122.613494 348 38239ft 434kts
24-Nov-20 14:17 42.222094 -122.621365 348 38226ft 433kts
24-Nov-20 14:18 42.342039 -122.629384 348 38209ft 434kts
24-Nov-20 14:20 42.462528 -122.637427 348 38203ft 433kts
24-Nov-20 14:21 42.582312 -122.645476 348 38204ft 432kts
24-Nov-20 14:22 42.702292 -122.653741 347 38203ft 432kts
24-Nov-20 14:23 42.822216 -122.661966 347 38203ft 432kts
24-Nov-20 14:24 42.942186 -122.670297 347 38202ft 435kts
24-Nov-20 14:25 43.063969 -122.678686 347 38203ft 445kts
24-Nov-20 14:26 43.184224 -122.686804 347 38203ft 445kts
24-Nov-20 14:27 43.307267 -122.695153 347 38204ft 444kts
24-Nov-20 14:28 43.430786 -122.703686 347 38203ft 445kts
24-Nov-20 14:29 43.553908 -122.712336 347 37876ft 444kts
24-Nov-20 14:30 43.679451 -122.721204 347 34448ft 459kts
24-Nov-20 14:31 43.806124 -122.730067 348 29752ft 466kts
24-Nov-20 14:32 43.933059 -122.738616 348 27572ft 438kts
24-Nov-20 14:33 44.051744 -122.746867 348 25751ft 420kts
24-Nov-20 14:34 44.166678 -122.752019 354 23886ft 413kts
24-Nov-20 14:35 44.280551 -122.741077 356 21922ft 404kts
24-Nov-20 14:36 44.390682 -122.730049 357 20110ft 393kts
24-Nov-20 14:37 44.497987 -122.719330 357 18320ft 382kts
24-Nov-20 14:37 44.585063 -122.710614 357 16884ft 371kts
24-Nov-20 14:39 44.702152 -122.698869 358 14982ft 347kts
24-Nov-20 14:39 44.780963 -122.690905 358 13705ft 336kts
24-Nov-20 14:41 44.887931 -122.680156 358 11865ft 326kts
24-Nov-20 14:41 44.961472 -122.672717 358 11034ft 302kts
24-Nov-20 14:42 45.040847 -122.664877 357 10947ft 281kts
24-Nov-20 14:43 45.122073 -122.656648 358 9305ft 294kts
24-Nov-20 14:44 45.203315 -122.648168 358 9057ft 292kts
24-Nov-20 14:45 45.280817 -122.659877 331 8413ft 275kts
24-Nov-20 14:46 45.352073 -122.699850 333 6985ft 276kts
24-Nov-20 14:47 45.423630 -122.739164 334 6071ft 277kts
24-Nov-20 14:48 45.491745 -122.776532 334 5521ft 247kts
24-Nov-20 14:49 45.554590 -122.811188 335 5037ft 242kts
24-Nov-20 14:50 45.599441 -122.873440 294 5033ft 227kts
24-Nov-20 14:51 45.634350 -122.948588 311 4905ft 230kts
24-Nov-20 14:52 45.689714 -122.996894 358 4033ft 240kts
24-Nov-20 14:53 45.717371 -122.932880 114 3772ft 216kts
24-Nov-20 14:54 45.695053 -122.854230 121 3234ft 211kts
24-Nov-20 14:55 45.667655 -122.781261 122 2911ft 196kts
24-Nov-20 14:56 45.643410 -122.719177 121 2031ft 156kts
24-Nov-20 14:57 45.623687 -122.669340 120 1193ft 141kts
24-Nov-20 14:58 45.604949 -122.621438 120 483ft 133kts
24-Nov-20 14:59 45.588903 -122.580433 119 38ft 65kts
24-Nov-20 15:00 45.586309 -122.576348 209 38ft 0kts
24-Nov-20 15:01 45.587105 -122.579106 298 38ft 21kts
24-Nov-20 15:02 45.589522 -122.587405 273 38ft 19kts
24-Nov-20 15:03 45.592603 -122.595331 299 38ft 25kts
24-Nov-20 15:04 45.590856 -122.597974 117 38ft 14kts
24-Nov-20 15:05 45.589730 -122.596850 204 38ft 1kts
24-Nov-20 15:06 45.589622 -122.596919 203 38ft 0kts
24-Nov-20 15:07 45.589622 -122.596919 203 38ft 0kts
24-Nov-20 15:08 45.589622 -122.596919 203 38ft 0kts
24-Nov-20 15:09 45.589622 -122.596919 203 38ft 0kts
24-Nov-20 15:10 45.589622 -122.596919 203 38ft 0kts
24-Nov-20 15:11 45.589622 -122.596919 203 38ft 0kts
24-Nov-20 15:12 45.589622 -122.596919 203 38ft 0kts
24-Nov-20 15:13 45.589622 -122.596919 203 38ft 0kts
24-Nov-20 15:14 45.589622 -122.596919 203 38ft 0kts

Navigation Log

Ident Type
Flight plan parsing failed, navigation log unavailable